Oakland, Kentucky
Current Conditions -  °F | °C
As of 5:53 PM on Sunday 23 Nov 2014 (Local Time) from KBWG Reporting Station
Overcast Overcast  
Wind Chill: 60°   Ceiling: 1800
Heat Index: 60°   Visibility: 10mi
Dew Point: 55°   Wind: 14mph
Humidity: 83%   Direction: 160°SSE
Pressure: 29.4"   Gusts: 24mph
Location:  37.04°N, 86.25°W
Report Text: KBWG 232353Z AUTO 16012G21KT 10SM BKN018 OVC023 16/13 A2940 RMK AO2 RAE36 SLP952 P0001 60037 T01560128 10156 20139 56037
Loading
Personal Weather Stations






























Interactive Weather Map New forecast layout! Learn more

10-Day Weather Forecast

Advertisements
Track Severe Weather on mobile